Terminal Aerodrome Forecast
Issued by NWS Chicago, IL

Home | Current Version | Previous Version | Graphics & Text | Print | Product List | Glossary On
Versions: 1 2 3 4 5 6 7 8 9 10 11 12 13 14 15 16 17 18 19 20 21 22 23 24 25 26 27 28 29 30 31 32 33 34 35
000
FTUS43 KLOT 190800 AAA
TAFRFD
TAF AMD
KRFD 190807Z 1908/2006 18006KT 6SM BR VCTS SCT035CB BKN050
     FM190830 20009KT 5SM TSRA BR OVC025CB
     FM191030 21009KT 6SM BR SCT010 BKN025
     FM191400 22011G17KT P6SM BKN035
     FM192000 27012G19KT P6SM SCT040
     FM200100 29006KT P6SM SCT040=

USA.gov is the U.S. government's official web portal to all federal, state and local government web resources and services.